Time;durP1;ratioP1;P1;durP2;ratioP2;P2;SDS_P1;SDS_P2;PMS_P1;PMS_P2;Temp;Humidity;BMP_temperature;BMP_pressure;BME280_temperature;BME280_humidity;BME280_pressure;Samples;Min_cycle;Max_cycle;Signal;HPM_P1;HPM_P2
2021/12/12 00:01:31;;;;;;;58.07;23.37;;;5.90;99.90;;;;;;5071708;28;20315;-80
2021/12/12 00:04:09;;;;;;;45.90;22.27;;;5.90;99.90;;;;;;5074437;28;20217;-80
2021/12/12 00:06:41;;;;;;;62.07;23.13;;;5.90;99.90;;;;;;5072736;28;20288;-80
2021/12/12 00:09:11;;;;;;;53.37;22.90;;;5.90;99.90;;;;;;5087017;28;20262;-79
2021/12/12 00:11:38;;;;;;;51.43;23.13;;;5.80;99.90;;;;;;5093283;28;20258;-79
2021/12/12 00:14:08;;;;;;;46.63;21.90;;;5.80;99.90;;;;;;5093680;28;20232;-79
2021/12/12 00:16:35;;;;;;;57.13;23.00;;;5.80;99.90;;;;;;5094221;28;20254;-79
2021/12/12 00:19:02;;;;;;;52.97;22.47;;;5.80;99.90;;;;;;5093242;28;20236;-79
2021/12/12 00:21:34;;;;;;;52.67;22.00;;;5.90;99.90;;;;;;5093606;28;20228;-79
2021/12/12 00:24:04;;;;;;;58.00;22.37;;;5.80;99.90;;;;;;5093865;28;20226;-79
2021/12/12 00:26:31;;;;;;;51.63;22.27;;;5.80;99.90;;;;;;5094330;28;20236;-80
2021/12/12 00:28:57;;;;;;;72.50;24.77;;;5.80;99.90;;;;;;5093846;28;20720;-80
2021/12/12 00:31:25;;;;;;;55.83;23.27;;;5.80;99.90;;;;;;5092985;28;20232;-80
2021/12/12 00:33:54;;;;;;;46.33;21.20;;;5.80;99.90;;;;;;5094537;28;20775;-80
2021/12/12 00:36:23;;;;;;;70.23;22.70;;;5.80;99.90;;;;;;5093029;28;20690;-79
2021/12/12 00:38:54;;;;;;;69.33;23.73;;;5.80;99.90;;;;;;5094640;28;20300;-79
2021/12/12 00:41:27;;;;;;;52.27;22.43;;;5.80;99.90;;;;;;5092427;28;20229;-79
2021/12/12 00:43:56;;;;;;;55.43;22.67;;;5.80;99.90;;;;;;5092336;28;20717;-79
2021/12/12 00:46:25;;;;;;;56.83;22.10;;;5.90;99.90;;;;;;5092845;28;20688;-79
2021/12/12 00:48:53;;;;;;;51.47;22.17;;;5.80;99.90;;;;;;5092417;28;20241;-79
2021/12/12 00:51:23;;;;;;;60.20;23.50;;;5.80;99.90;;;;;;5094447;28;20220;-80
2021/12/12 00:53:51;;;;;;;48.03;21.90;;;5.80;99.90;;;;;;5094142;28;20309;-80
2021/12/12 00:56:18;;;;;;;54.93;22.97;;;5.80;99.90;;;;;;5092056;28;20312;-80
2021/12/12 00:58:47;;;;;;;48.97;22.17;;;5.80;99.90;;;;;;5092951;28;20329;-80
2021/12/12 01:01:17;;;;;;;53.87;24.03;;;5.90;99.90;;;;;;5091413;28;20592;-80
2021/12/12 01:03:47;;;;;;;51.37;23.07;;;5.80;99.90;;;;;;5092582;28;20257;-80
2021/12/12 01:06:14;;;;;;;52.73;23.07;;;5.90;99.90;;;;;;5092041;28;20313;-80
2021/12/12 01:08:43;;;;;;;56.60;21.57;;;5.90;99.90;;;;;;5095069;28;20208;-80
2021/12/12 01:11:14;;;;;;;52.13;22.70;;;5.90;99.90;;;;;;5092304;28;20244;-80
2021/12/12 01:13:42;;;;;;;60.27;24.53;;;6.00;99.90;;;;;;5092604;28;20313;-80
2021/12/12 01:16:14;;;;;;;53.77;23.07;;;6.00;99.90;;;;;;5092231;28;20602;-78
2021/12/12 01:18:44;;;;;;;53.83;22.67;;;6.00;99.90;;;;;;5090769;28;20230;-79
2021/12/12 01:21:14;;;;;;;48.93;22.40;;;6.00;99.90;;;;;;5090917;28;20325;-78
2021/12/12 01:23:45;;;;;;;52.90;22.23;;;6.00;99.90;;;;;;5091171;28;20219;-79
2021/12/12 01:26:13;;;;;;;48.37;22.27;;;6.00;99.90;;;;;;5090420;28;20338;-79
2021/12/12 01:28:42;;;;;;;49.60;22.30;;;6.00;99.90;;;;;;5091404;28;20230;-79
2021/12/12 01:31:13;;;;;;;95.10;24.83;;;6.00;99.90;;;;;;5090010;28;20234;-78
2021/12/12 01:33:42;;;;;;;57.40;23.63;;;6.00;99.90;;;;;;5091191;28;20218;-79
2021/12/12 01:36:22;;;;;;;53.27;23.23;;;6.00;99.90;;;;;;5092110;28;20296;-79
2021/12/12 01:38:55;;;;;;;111.57;25.07;;;6.00;99.90;;;;;;5091485;28;20701;-79
2021/12/12 01:41:26;;;;;;;90.93;24.00;;;6.00;99.90;;;;;;5090808;28;20754;-78
2021/12/12 01:43:58;;;;;;;75.07;25.73;;;6.00;99.90;;;;;;5090875;28;20230;-78
2021/12/12 01:46:33;;;;;;;60.43;23.00;;;6.00;99.90;;;;;;5092462;28;20212;-78
2021/12/12 01:49:05;;;;;;;62.13;25.23;;;6.00;99.90;;;;;;5092436;28;20229;-77
2021/12/12 01:51:34;;;;;;;57.83;24.63;;;6.00;99.90;;;;;;5092292;28;20217;-78
2021/12/12 01:54:06;;;;;;;61.63;26.13;;;6.00;99.90;;;;;;5092280;28;20234;-78
2021/12/12 01:56:39;;;;;;;69.20;25.50;;;6.00;99.90;;;;;;5091765;28;20239;-78
2021/12/12 01:59:08;;;;;;;68.30;24.93;;;6.00;99.90;;;;;;5092082;28;20214;-78
2021/12/12 02:01:40;;;;;;;53.70;23.40;;;6.00;99.90;;;;;;5091683;28;20648;-78
2021/12/12 02:04:11;;;;;;;62.93;24.57;;;6.00;99.90;;;;;;5092321;28;20209;-78
2021/12/12 02:06:38;;;;;;;56.53;23.30;;;6.00;99.90;;;;;;5073258;28;20231;-78
2021/12/12 02:09:07;;;;;;;48.50;22.87;;;6.00;99.90;;;;;;5070535;28;20329;-77
2021/12/12 02:11:35;;;;;;;47.93;21.83;;;6.00;99.90;;;;;;5070340;28;20768;-77
2021/12/12 02:14:10;;;;;;;51.80;23.07;;;6.00;99.90;;;;;;5090788;28;20255;-80
2021/12/12 02:16:44;;;;;;;47.47;21.63;;;6.00;99.90;;;;;;5091564;28;20235;-79
2021/12/12 02:19:12;;;;;;;51.57;23.57;;;6.00;99.90;;;;;;5092214;28;20311;-79
2021/12/12 02:21:56;;;;;;;48.37;21.10;;;6.00;99.90;;;;;;5091013;28;20323;-80
2021/12/12 02:35:07;;;;;;;50.53;22.10;;;6.00;99.90;;;;;;5089755;28;20226;-79
2021/12/12 02:35:46;;;;;;;44.17;21.50;;;6.00;99.90;;;;;;5091509;28;20256;-79
2021/12/12 02:38:16;;;;;;;42.00;19.63;;;6.00;99.90;;;;;;5092759;28;20294;-79
2021/12/12 02:40:47;;;;;;;39.90;20.27;;;6.00;99.90;;;;;;5092412;28;20215;-79
2021/12/12 02:43:18;;;;;;;37.43;19.10;;;6.00;99.90;;;;;;5092599;28;20295;-79
2021/12/12 02:45:45;;;;;;;38.57;19.07;;;6.00;99.90;;;;;;5091058;28;20225;-79
2021/12/12 02:48:17;;;;;;;37.43;19.03;;;6.00;99.90;;;;;;5092349;28;20214;-79
2021/12/12 02:50:46;;;;;;;38.50;20.20;;;6.00;99.90;;;;;;5091515;28;20227;-79
2021/12/12 02:53:17;;;;;;;44.57;20.43;;;6.00;99.90;;;;;;5091808;28;20218;-79
2021/12/12 02:55:48;;;;;;;37.77;19.70;;;6.00;99.90;;;;;;5077588;28;20623;-79
2021/12/12 02:58:19;;;;;;;42.00;20.23;;;6.00;99.90;;;;;;5070589;28;20225;-80
2021/12/12 03:00:50;;;;;;;41.37;19.50;;;6.00;99.90;;;;;;5071540;28;20221;-80
2021/12/12 03:03:17;;;;;;;40.07;19.13;;;6.00;99.90;;;;;;5070596;28;20218;-80
2021/12/12 03:05:46;;;;;;;36.73;19.73;;;6.00;99.90;;;;;;5090122;28;20304;-80
2021/12/12 03:08:14;;;;;;;38.93;20.73;;;6.00;99.90;;;;;;5091379;28;20233;-80
2021/12/12 03:10:44;;;;;;;40.03;20.50;;;6.00;99.90;;;;;;5091053;28;20236;-80
2021/12/12 03:13:12;;;;;;;39.83;20.80;;;6.00;99.90;;;;;;5090266;28;20229;-80
2021/12/12 03:15:42;;;;;;;40.27;18.97;;;6.00;99.90;;;;;;5092731;28;20295;-80
2021/12/12 03:18:12;;;;;;;43.03;19.50;;;6.00;99.90;;;;;;5090845;28;20681;-80
2021/12/12 03:20:44;;;;;;;43.87;20.13;;;6.00;99.90;;;;;;5090545;28;20233;-79
2021/12/12 03:23:19;;;;;;;46.37;21.07;;;6.00;99.90;;;;;;5091232;28;20630;-80
2021/12/12 03:25:50;;;;;;;43.83;20.50;;;6.00;99.90;;;;;;5090298;28;20230;-80
2021/12/12 03:28:21;;;;;;;49.57;20.70;;;6.00;99.90;;;;;;5091697;28;20300;-80
2021/12/12 03:30:50;;;;;;;42.77;20.23;;;6.00;99.90;;;;;;5089700;28;20312;-79
2021/12/12 03:33:17;;;;;;;44.83;20.87;;;6.00;99.90;;;;;;5090398;28;20215;-80
2021/12/12 03:35:47;;;;;;;49.13;22.33;;;6.00;99.90;;;;;;5095502;28;20206;-79
2021/12/12 03:38:14;;;;;;;42.20;21.37;;;6.00;99.90;;;;;;5095430;28;20263;-79
2021/12/12 03:40:41;;;;;;;53.07;22.63;;;6.00;99.90;;;;;;5095545;28;20215;-79
2021/12/12 03:43:12;;;;;;;44.77;21.73;;;6.00;99.90;;;;;;5093963;28;20342;-79
2021/12/12 03:45:42;;;;;;;51.70;22.17;;;6.00;99.90;;;;;;5093974;28;20842;-79
2021/12/12 03:48:13;;;;;;;45.73;22.47;;;6.00;99.90;;;;;;5093720;28;20227;-79
2021/12/12 03:50:44;;;;;;;47.77;21.37;;;6.00;99.90;;;;;;5094110;28;20228;-80
2021/12/12 03:53:11;;;;;;;47.77;21.60;;;6.00;99.90;;;;;;5094073;28;20599;-77
2021/12/12 03:55:38;;;;;;;45.97;22.03;;;6.00;99.90;;;;;;5092664;28;20244;-78
2021/12/12 03:58:08;;;;;;;47.43;22.77;;;6.00;99.90;;;;;;5093244;28;20212;-78
2021/12/12 04:00:38;;;;;;;52.03;22.83;;;6.00;99.90;;;;;;5084296;28;20254;-80
2021/12/12 04:03:07;;;;;;;51.67;21.97;;;6.00;99.90;;;;;;5093732;28;20778;-80
2021/12/12 04:05:34;;;;;;;48.17;22.23;;;6.00;99.90;;;;;;5085062;28;20219;-80
2021/12/12 04:08:01;;;;;;;45.17;21.47;;;6.00;99.90;;;;;;5073068;28;20234;-80
2021/12/12 04:10:28;;;;;;;46.10;22.67;;;6.00;99.90;;;;;;5072911;28;20232;-80
2021/12/12 04:12:55;;;;;;;48.57;22.70;;;6.00;99.90;;;;;;5073930;28;20254;-79
2021/12/12 04:15:23;;;;;;;52.30;23.87;;;6.10;99.90;;;;;;5081103;28;20246;-80
2021/12/12 04:17:53;;;;;;;49.03;22.70;;;6.10;99.90;;;;;;5073027;28;20224;-80
2021/12/12 04:20:26;;;;;;;48.50;22.53;;;6.10;99.90;;;;;;5074018;28;20241;-80
2021/12/12 04:22:52;;;;;;;47.83;22.63;;;6.10;99.90;;;;;;5076266;28;20222;-78
2021/12/12 04:25:19;;;;;;;46.93;22.40;;;6.10;99.90;;;;;;5077956;28;20312;-78
2021/12/12 04:27:46;;;;;;;46.97;22.33;;;6.10;99.90;;;;;;5083008;28;20335;-78
2021/12/12 04:30:15;;;;;;;49.10;23.13;;;6.20;99.90;;;;;;5093020;28;20336;-78
2021/12/12 04:32:43;;;;;;;50.83;23.07;;;6.20;99.90;;;;;;5083949;28;20219;-77
2021/12/12 04:35:12;;;;;;;46.23;22.13;;;6.20;99.90;;;;;;5074652;28;20225;-79
2021/12/12 04:37:41;;;;;;;47.50;22.63;;;6.30;99.90;;;;;;5074095;28;20316;-80
2021/12/12 04:40:13;;;;;;;46.30;22.57;;;6.30;99.90;;;;;;5073686;28;20218;-80
2021/12/12 04:42:41;;;;;;;44.00;22.13;;;6.30;99.90;;;;;;5073280;28;20326;-80
2021/12/12 04:45:18;;;;;;;44.83;21.43;;;6.30;99.90;;;;;;5073731;28;20225;-80
2021/12/12 04:50:37;;;;;;;49.10;23.20;;;6.40;99.90;;;;;;5073742;28;20588;-80
2021/12/12 04:53:11;;;;;;;46.90;22.73;;;6.40;99.90;;;;;;5074613;28;20668;-79
2021/12/12 04:55:48;;;;;;;51.40;23.30;;;6.40;99.90;;;;;;5072381;28;20258;-79
2021/12/12 04:58:19;;;;;;;46.13;21.80;;;6.40;99.90;;;;;;5072660;28;20227;-79
2021/12/12 05:00:49;;;;;;;46.57;22.87;;;6.40;99.90;;;;;;5073786;28;20329;-79
2021/12/12 05:03:19;;;;;;;48.73;24.73;;;6.40;99.90;;;;;;5074835;28;20221;-79
2021/12/12 05:05:52;;;;;;;48.20;22.73;;;6.50;99.90;;;;;;5073420;28;20263;-80
2021/12/12 05:08:32;;;;;;;47.13;23.27;;;6.50;99.90;;;;;;5074117;28;20318;-78
2021/12/12 05:11:04;;;;;;;52.17;24.20;;;6.50;99.90;;;;;;5073482;28;20248;-78
2021/12/12 05:13:35;;;;;;;50.40;24.67;;;6.50;99.90;;;;;;5071532;28;20257;-79
2021/12/12 05:16:08;;;;;;;50.10;23.20;;;6.50;99.90;;;;;;5072350;28;20665;-79
2021/12/12 05:18:38;;;;;;;52.20;24.87;;;6.50;99.90;;;;;;5071739;28;20627;-78
2021/12/12 05:21:08;;;;;;;56.03;24.23;;;6.50;99.90;;;;;;5072525;28;20308;-79
2021/12/12 05:23:39;;;;;;;55.50;23.73;;;6.50;99.90;;;;;;5072165;28;20301;-80
2021/12/12 05:26:08;;;;;;;46.20;22.50;;;6.40;99.90;;;;;;5073108;28;20261;-79
2021/12/12 05:28:39;;;;;;;52.37;24.07;;;6.40;99.90;;;;;;5071974;28;20225;-79
2021/12/12 05:31:11;;;;;;;55.27;24.57;;;6.40;99.90;;;;;;5072893;28;20296;-79
2021/12/12 05:33:40;;;;;;;58.50;24.63;;;6.40;99.90;;;;;;5073470;28;20236;-79
2021/12/12 05:36:09;;;;;;;51.33;23.43;;;6.40;99.90;;;;;;5071692;28;20308;-80
2021/12/12 05:38:38;;;;;;;56.77;25.60;;;6.40;99.90;;;;;;5072547;28;20218;-80
2021/12/12 05:41:06;;;;;;;51.43;23.80;;;6.40;99.90;;;;;;5072336;28;20317;-79
2021/12/12 05:43:33;;;;;;;56.80;24.37;;;6.40;99.90;;;;;;5070809;28;20239;-79
2021/12/12 05:46:01;;;;;;;55.77;25.40;;;6.40;99.90;;;;;;5074885;28;20218;-79
2021/12/12 05:48:30;;;;;;;56.27;23.93;;;6.40;99.90;;;;;;5087507;28;20246;-79
2021/12/12 05:50:56;;;;;;;52.00;23.27;;;6.50;99.90;;;;;;5074203;28;20217;-79
2021/12/12 05:53:23;;;;;;;63.80;25.50;;;6.50;99.90;;;;;;5082253;28;20248;-79
2021/12/12 05:55:51;;;;;;;53.00;25.10;;;6.50;99.90;;;;;;5087107;28;20236;-79
2021/12/12 05:58:21;;;;;;;57.20;26.00;;;6.50;99.90;;;;;;5070865;28;20646;-79
2021/12/12 06:00:50;;;;;;;58.67;26.27;;;6.50;99.90;;;;;;5090369;28;20220;-81
2021/12/12 06:03:20;;;;;;;59.03;26.50;;;6.50;99.90;;;;;;5085772;28;20223;-81
2021/12/12 06:05:47;;;;;;;63.23;26.50;;;6.50;99.90;;;;;;5088816;28;20219;-81
2021/12/12 06:08:15;;;;;;;58.97;26.73;;;6.50;99.90;;;;;;5076627;28;20225;-79
2021/12/12 06:10:43;;;;;;;60.60;26.40;;;6.60;99.90;;;;;;5070163;28;20258;-79
2021/12/12 06:13:14;;;;;;;62.33;26.63;;;6.60;99.90;;;;;;5071908;28;20769;-80
2021/12/12 06:15:42;;;;;;;57.13;26.10;;;6.60;99.90;;;;;;5071241;28;20231;-80
2021/12/12 06:18:10;;;;;;;60.87;27.20;;;6.60;99.90;;;;;;5076506;28;20301;-80
2021/12/12 06:20:36;;;;;;;53.60;26.13;;;6.60;99.90;;;;;;5091240;28;20223;-80
2021/12/12 06:23:04;;;;;;;111.03;28.27;;;6.70;99.90;;;;;;5092366;28;20311;-80
2021/12/12 06:25:31;;;;;;;60.97;27.97;;;6.70;99.90;;;;;;5089416;28;20226;-79
2021/12/12 06:27:57;;;;;;;61.37;25.90;;;6.70;99.90;;;;;;5090573;28;20218;-80
2021/12/12 06:30:26;;;;;;;65.23;25.77;;;6.70;99.90;;;;;;5089970;28;20332;-80
2021/12/12 06:32:53;;;;;;;63.37;26.67;;;6.70;99.90;;;;;;5090636;28;20217;-80
2021/12/12 06:35:20;;;;;;;58.10;25.23;;;6.70;99.90;;;;;;5091735;28;20217;-81
2021/12/12 06:37:47;;;;;;;58.17;26.07;;;6.70;99.90;;;;;;5079850;28;20230;-81
2021/12/12 06:40:19;;;;;;;60.13;26.80;;;6.70;99.90;;;;;;5070430;28;20236;-81
2021/12/12 06:42:47;;;;;;;61.90;27.03;;;6.70;99.90;;;;;;5089786;28;20682;-81
2021/12/12 06:45:14;;;;;;;66.07;27.33;;;6.80;99.90;;;;;;5079783;28;20210;-82
2021/12/12 06:47:43;;;;;;;57.13;27.57;;;6.80;99.90;;;;;;5079541;28;20217;-80
2021/12/12 06:50:10;;;;;;;65.13;26.00;;;6.70;99.90;;;;;;5086162;28;20230;-82
2021/12/12 06:52:39;;;;;;;58.53;26.67;;;6.80;99.90;;;;;;5080217;28;20541;-79
2021/12/12 06:55:09;;;;;;;59.43;25.60;;;6.80;99.90;;;;;;5076733;28;20233;-79
2021/12/12 06:57:36;;;;;;;54.60;26.53;;;6.80;99.90;;;;;;5071585;28;20223;-78
2021/12/12 07:00:06;;;;;;;65.47;25.93;;;6.80;99.90;;;;;;5060964;28;20714;-79
2021/12/12 07:02:32;;;;;;;56.20;25.47;;;6.80;99.90;;;;;;5077365;28;20324;-79
2021/12/12 07:05:01;;;;;;;58.83;26.27;;;6.80;99.90;;;;;;5090183;28;20218;-79
2021/12/12 07:07:28;;;;;;;54.57;23.97;;;6.80;99.90;;;;;;5086188;28;20261;-79
2021/12/12 07:09:55;;;;;;;53.77;25.43;;;6.80;99.90;;;;;;5072082;28;20225;-79
2021/12/12 07:12:23;;;;;;;62.10;24.27;;;6.80;99.90;;;;;;5067863;28;20227;-79
2021/12/12 07:14:51;;;;;;;54.23;24.33;;;6.80;99.90;;;;;;5070290;28;20219;-79
2021/12/12 07:17:18;;;;;;;54.00;23.73;;;6.80;99.90;;;;;;5083258;28;20214;-78
2021/12/12 07:19:45;;;;;;;53.57;23.53;;;6.80;99.90;;;;;;5088757;28;21061;-79
2021/12/12 07:22:15;;;;;;;50.47;22.30;;;6.80;99.90;;;;;;5090568;28;20575;-79
2021/12/12 07:24:43;;;;;;;47.30;21.93;;;6.80;99.90;;;;;;5087281;28;20308;-79
2021/12/12 07:27:11;;;;;;;49.10;21.60;;;6.80;99.90;;;;;;5089567;28;20217;-79
2021/12/12 07:29:37;;;;;;;48.17;21.47;;;6.80;99.90;;;;;;5073166;28;20225;-79
2021/12/12 07:32:05;;;;;;;43.90;20.70;;;6.90;99.90;;;;;;5081593;28;20243;-79
2021/12/12 07:34:32;;;;;;;51.50;23.37;;;6.90;99.90;;;;;;5074392;28;20214;-79
2021/12/12 07:37:02;;;;;;;47.37;21.37;;;6.90;99.90;;;;;;5073052;28;20241;-79
2021/12/12 07:39:32;;;;;;;41.43;19.30;;;6.90;99.90;;;;;;5081687;28;20218;-78
2021/12/12 07:42:01;;;;;;;43.77;22.13;;;6.90;99.90;;;;;;5069209;28;20331;-78
2021/12/12 07:44:32;;;;;;;45.57;21.07;;;6.90;99.90;;;;;;5068734;28;20230;-79
2021/12/12 07:47:00;;;;;;;45.97;21.03;;;6.90;99.90;;;;;;5069060;28;20671;-80
2021/12/12 07:49:31;;;;;;;40.43;20.73;;;6.90;99.90;;;;;;5076096;28;20253;-78
2021/12/12 07:51:58;;;;;;;39.63;20.40;;;6.90;99.90;;;;;;5090501;28;20220;-81
2021/12/12 07:54:25;;;;;;;43.73;20.47;;;6.90;99.90;;;;;;5070907;28;20510;-81
2021/12/12 07:56:53;;;;;;;44.60;19.00;;;6.90;99.90;;;;;;5077975;28;20225;-83
2021/12/12 07:59:21;;;;;;;53.40;19.87;;;6.90;99.90;;;;;;5076247;28;20214;-82
2021/12/12 08:01:50;;;;;;;50.47;18.97;;;6.90;99.90;;;;;;5066306;28;20314;-83
2021/12/12 08:04:21;;;;;;;44.20;19.17;;;6.90;99.90;;;;;;5068946;28;20265;-83
2021/12/12 08:06:49;;;;;;;43.30;18.90;;;6.90;99.90;;;;;;5075430;28;20224;-83
2021/12/12 08:09:16;;;;;;;43.13;18.50;;;6.90;99.90;;;;;;5087230;28;20303;-84
2021/12/12 08:11:44;;;;;;;48.50;19.07;;;6.90;99.90;;;;;;5075650;28;20218;-83
2021/12/12 08:14:17;;;;;;;40.27;17.67;;;6.90;99.90;;;;;;5070845;28;20244;-82
2021/12/12 08:16:45;;;;;;;40.93;18.53;;;6.90;99.90;;;;;;5070092;28;20218;-83
2021/12/12 08:19:12;;;;;;;40.03;17.33;;;6.90;99.90;;;;;;5068105;28;20233;-79
2021/12/12 08:21:39;;;;;;;36.67;17.07;;;6.90;99.90;;;;;;5067063;28;20225;-79
2021/12/12 08:24:09;;;;;;;40.13;16.13;;;6.90;99.90;;;;;;5071575;28;20224;-78
2021/12/12 08:26:38;;;;;;;34.83;17.07;;;6.90;99.90;;;;;;5075522;28;20833;-79
2021/12/12 08:29:06;;;;;;;35.90;16.73;;;6.90;99.90;;;;;;5081918;28;20230;-79
2021/12/12 08:31:35;;;;;;;36.23;16.63;;;6.90;99.90;;;;;;5083783;28;20864;-79
2021/12/12 08:34:02;;;;;;;28.50;16.53;;;6.90;99.90;;;;;;5076257;28;20221;-79
2021/12/12 08:36:30;;;;;;;45.90;17.77;;;6.90;99.90;;;;;;5088775;28;20233;-79
2021/12/12 08:38:57;;;;;;;36.10;15.70;;;6.90;99.90;;;;;;5068401;28;20259;-80
2021/12/12 08:41:24;;;;;;;32.43;16.30;;;6.90;99.90;;;;;;5073240;28;20225;-79
2021/12/12 08:43:51;;;;;;;39.77;17.03;;;6.90;99.90;;;;;;5082746;28;20218;-80
2021/12/12 08:46:18;;;;;;;29.63;16.43;;;6.90;99.90;;;;;;5072305;28;20213;-78
2021/12/12 08:48:50;;;;;;;32.70;16.77;;;6.90;99.90;;;;;;5074929;28;20236;-79
2021/12/12 08:51:22;;;;;;;33.27;16.70;;;6.90;99.90;;;;;;5088201;28;20682;-79
2021/12/12 08:53:54;;;;;;;30.40;16.13;;;6.90;99.90;;;;;;5072180;28;20216;-79
2021/12/12 08:56:40;;;;;;;31.70;15.47;;;6.90;99.90;;;;;;5076826;28;20314;-79
2021/12/12 08:59:07;;;;;;;32.80;15.53;;;6.90;99.90;;;;;;5079059;28;20226;-79
2021/12/12 09:01:34;;;;;;;40.60;16.13;;;6.90;99.90;;;;;;5068673;28;20265;-79
2021/12/12 09:04:04;;;;;;;31.60;15.00;;;6.80;99.90;;;;;;5075698;28;20247;-79
2021/12/12 09:06:34;;;;;;;31.57;14.33;;;6.80;99.90;;;;;;5076769;28;20308;-80
2021/12/12 09:09:06;;;;;;;35.03;14.57;;;6.80;99.90;;;;;;5082178;28;20220;-78
2021/12/12 09:11:38;;;;;;;33.43;14.10;;;6.80;99.90;;;;;;5070534;28;20226;-79
2021/12/12 09:14:14;;;;;;;27.67;14.70;;;6.80;99.90;;;;;;5068511;28;20229;-79
2021/12/12 09:16:46;;;;;;;32.97;15.23;;;6.80;99.90;;;;;;5070284;28;20219;-80
2021/12/12 09:19:18;;;;;;;28.83;14.17;;;6.90;99.90;;;;;;5074795;28;20214;-84
2021/12/12 09:21:50;;;;;;;30.20;14.20;;;6.90;99.90;;;;;;5076797;28;20215;-84
2021/12/12 09:24:32;;;;;;;32.93;14.53;;;6.90;99.90;;;;;;5069935;28;20222;-83
2021/12/12 09:27:04;;;;;;;38.00;14.40;;;6.90;99.90;;;;;;5064784;28;20207;-84
2021/12/12 09:29:37;;;;;;;30.83;13.90;;;6.90;99.90;;;;;;5066152;28;20227;-84
2021/12/12 09:32:10;;;;;;;44.40;14.03;;;6.90;99.90;;;;;;5057031;28;20322;-86
2021/12/12 09:34:42;;;;;;;24.80;13.67;;;6.90;99.90;;;;;;5070253;28;20230;-83
2021/12/12 09:37:13;;;;;;;28.90;14.40;;;7.00;99.90;;;;;;5069996;28;20232;-81
2021/12/12 09:39:45;;;;;;;46.43;14.00;;;7.00;99.90;;;;;;5064575;28;20216;-81
2021/12/12 09:42:24;;;;;;;25.70;12.60;;;7.00;99.90;;;;;;5062880;28;20801;-85
2021/12/12 09:45:02;;;;;;;32.37;13.00;;;7.00;99.90;;;;;;5070474;28;20238;-84
2021/12/12 09:48:14;;;;;;;27.60;11.80;;;7.00;99.90;;;;;;5069415;28;20219;-87
2021/12/12 09:51:14;;;;;;;23.43;12.53;;;7.10;99.90;;;;;;5065708;28;20225;-84
2021/12/12 09:53:57;;;;;;;25.73;12.47;;;7.10;99.90;;;;;;5066339;28;20222;-84
2021/12/12 09:56:37;;;;;;;20.03;12.40;;;7.10;99.90;;;;;;5075541;28;20244;-84
2021/12/12 09:59:07;;;;;;;22.80;12.03;;;7.10;99.90;;;;;;5076101;28;20314;-84
2021/12/12 10:01:40;;;;;;;21.97;10.80;;;7.20;99.90;;;;;;5071714;28;20241;-83
2021/12/12 10:04:25;;;;;;;26.77;11.80;;;7.20;99.90;;;;;;5082673;28;20222;-84
2021/12/12 10:07:06;;;;;;;20.23;10.63;;;7.20;99.90;;;;;;5077812;28;20222;-85
2021/12/12 10:09:38;;;;;;;19.63;9.93;;;7.20;99.90;;;;;;5067846;28;20223;-85
2021/12/12 10:12:09;;;;;;;19.03;9.97;;;7.30;99.90;;;;;;5061515;28;20215;-84
2021/12/12 10:14:43;;;;;;;36.80;11.63;;;7.30;99.90;;;;;;5074979;28;20225;-85
2021/12/12 10:17:13;;;;;;;15.27;9.43;;;7.30;99.90;;;;;;5066569;28;20703;-85
2021/12/12 10:19:48;;;;;;;26.10;11.43;;;7.30;99.90;;;;;;5083391;28;20230;-83
2021/12/12 10:22:25;;;;;;;26.97;11.77;;;7.30;99.90;;;;;;5068135;28;20221;-84
2021/12/12 10:25:02;;;;;;;18.87;10.83;;;7.40;99.90;;;;;;5061610;28;20703;-84
2021/12/12 10:27:35;;;;;;;14.60;8.50;;;7.40;99.90;;;;;;5068218;28;20631;-83
2021/12/12 10:30:10;;;;;;;17.03;9.30;;;7.40;99.90;;;;;;5069298;28;20227;-83
2021/12/12 10:32:46;;;;;;;23.10;9.10;;;7.50;99.90;;;;;;5066053;28;20247;-83
2021/12/12 10:35:18;;;;;;;34.70;9.03;;;7.50;99.90;;;;;;5068017;28;20221;-83
2021/12/12 10:37:55;;;;;;;19.37;7.37;;;7.50;99.90;;;;;;5065113;28;20245;-82
2021/12/12 10:40:34;;;;;;;10.40;6.20;;;7.60;99.90;;;;;;5088535;28;20229;-83
2021/12/12 10:43:06;;;;;;;19.60;6.20;;;7.60;99.90;;;;;;5066551;28;20230;-84
2021/12/12 10:45:36;;;;;;;10.30;6.70;;;7.70;99.90;;;;;;5067784;28;20342;-83
2021/12/12 10:48:07;;;;;;;103.87;14.83;;;7.70;99.90;;;;;;5056170;28;20226;-82
2021/12/12 10:50:44;;;;;;;16.83;6.10;;;7.70;99.90;;;;;;5067389;28;20695;-82
2021/12/12 10:53:21;;;;;;;7.13;4.33;;;7.80;99.90;;;;;;5069221;28;20289;-83
2021/12/12 10:55:53;;;;;;;10.30;4.10;;;7.80;99.90;;;;;;5065963;28;21085;-84
2021/12/12 10:58:26;;;;;;;7.90;5.40;;;7.80;99.90;;;;;;5060461;28;20215;-85
2021/12/12 11:00:55;;;;;;;7.13;4.30;;;7.90;99.90;;;;;;5063717;28;20229;-85
2021/12/12 11:03:27;;;;;;;16.47;4.87;;;7.90;99.90;;;;;;5072724;28;20219;-84
2021/12/12 11:05:58;;;;;;;11.17;4.93;;;7.90;99.90;;;;;;5078445;28;20309;-84
2021/12/12 11:08:37;;;;;;;10.73;3.90;;;8.00;99.90;;;;;;5064096;28;20598;-85
2021/12/12 11:11:11;;;;;;;7.83;4.03;;;8.00;99.90;;;;;;5073802;28;20233;-84
2021/12/12 11:13:42;;;;;;;6.30;3.90;;;8.00;99.90;;;;;;5068247;28;20223;-84
2021/12/12 11:16:14;;;;;;;8.67;3.50;;;8.00;99.90;;;;;;5067010;28;20291;-84
2021/12/12 11:18:46;;;;;;;5.13;3.70;;;8.10;99.90;;;;;;5068520;28;20223;-84
2021/12/12 11:21:18;;;;;;;10.00;7.23;;;8.10;99.90;;;;;;5068227;28;20590;-85
2021/12/12 11:23:51;;;;;;;5.47;3.77;;;8.10;99.90;;;;;;5068804;28;20303;-84
2021/12/12 11:26:22;;;;;;;8.40;4.07;;;8.20;99.90;;;;;;5066410;28;20950;-84
2021/12/12 11:28:53;;;;;;;8.23;3.60;;;8.20;99.90;;;;;;5070293;28;20220;-84
2021/12/12 11:31:26;;;;;;;7.10;3.50;;;8.20;99.90;;;;;;5062054;28;20310;-84
2021/12/12 11:33:55;;;;;;;3.77;3.03;;;8.20;99.90;;;;;;5065259;28;20308;-84
2021/12/12 11:36:27;;;;;;;7.07;3.17;;;8.30;99.90;;;;;;5067795;28;20227;-85
2021/12/12 11:39:05;;;;;;;5.93;3.07;;;8.30;99.90;;;;;;5068666;28;20243;-84
2021/12/12 11:41:38;;;;;;;9.13;3.20;;;8.30;99.90;;;;;;5062469;28;20231;-86
2021/12/12 11:44:13;;;;;;;8.17;3.07;;;8.30;99.90;;;;;;5071465;28;20223;-85
2021/12/12 11:46:49;;;;;;;4.50;3.00;;;8.40;99.90;;;;;;5071375;28;20672;-85
2021/12/12 11:49:23;;;;;;;7.50;3.60;;;8.40;99.90;;;;;;5066228;28;20223;-85
2021/12/12 11:51:52;;;;;;;7.63;3.40;;;8.40;99.90;;;;;;5067607;28;20225;-85
2021/12/12 11:54:33;;;;;;;8.10;3.50;;;8.40;99.90;;;;;;5066548;28;20229;-85
2021/12/12 11:57:05;;;;;;;8.90;3.70;;;8.40;99.90;;;;;;5068228;28;20278;-84
2021/12/12 11:59:36;;;;;;;14.63;4.30;;;8.40;99.90;;;;;;5072951;28;20323;-86
2021/12/12 12:02:09;;;;;;;5.97;2.73;;;8.50;99.90;;;;;;5068347;28;20727;-84
2021/12/12 12:05:02;;;;;;;6.27;3.43;;;8.50;99.90;;;;;;5068324;28;20221;-84
2021/12/12 12:07:43;;;;;;;6.97;3.50;;;8.50;99.90;;;;;;5069242;28;20232;-85
2021/12/12 12:10:15;;;;;;;4.07;3.00;;;8.60;99.90;;;;;;5072607;28;20235;-84
2021/12/12 12:12:59;;;;;;;15.07;4.40;;;8.50;99.90;;;;;;5078022;28;20224;-85
2021/12/12 12:15:38;;;;;;;8.17;3.43;;;8.60;99.90;;;;;;5075885;28;20941;-87
2021/12/12 12:18:14;;;;;;;4.07;3.20;;;8.60;99.90;;;;;;5070918;28;20244;-84
2021/12/12 12:20:51;;;;;;;55.70;6.77;;;8.60;99.90;;;;;;5068084;28;20224;-84
2021/12/12 12:23:33;;;;;;;21.00;4.10;;;8.60;99.90;;;;;;5077360;28;20220;-84
2021/12/12 12:28:57;;;;;;;3.97;3.33;;;8.70;99.90;;;;;;5072254;28;20223;-84
2021/12/12 12:32:15;;;;;;;17.03;5.20;;;8.70;99.90;;;;;;5067126;28;20314;-84
2021/12/12 12:35:56;;;;;;;4.53;3.33;;;8.70;99.90;;;;;;5070765;28;20216;-84
2021/12/12 12:39:12;;;;;;;8.67;4.33;;;8.70;99.90;;;;;;5021525;28;20217;-84
2021/12/12 12:42:21;;;;;;;13.10;4.30;;;8.70;99.90;;;;;;4938518;28;20222;-84
2021/12/12 12:45:26;;;;;;;45.93;6.43;;;8.80;99.90;;;;;;5090252;28;20227;-85
2021/12/12 12:48:35;;;;;;;11.10;4.70;;;8.80;99.90;;;;;;5067985;28;20317;-86
2021/12/12 12:51:24;;;;;;;22.00;5.03;;;8.80;99.90;;;;;;5065686;28;20948;-85
2021/12/12 12:54:27;;;;;;;5.93;4.10;;;8.80;99.90;;;;;;5068713;28;20251;-85
2021/12/12 12:57:19;;;;;;;27.47;5.47;;;8.80;99.90;;;;;;5076621;28;20727;-86
2021/12/12 12:59:54;;;;;;;40.83;6.70;;;8.80;99.90;;;;;;5071628;28;20219;-85
2021/12/12 13:02:24;;;;;;;24.97;6.40;;;8.80;99.90;;;;;;5067227;28;20242;-85
2021/12/12 13:05:28;;;;;;;22.97;6.73;;;8.80;99.90;;;;;;5072062;28;20813;-85
2021/12/12 13:08:55;;;;;;;15.80;6.27;;;8.90;99.90;;;;;;5062496;28;20215;-85
2021/12/12 13:11:30;;;;;;;15.57;6.57;;;8.90;99.90;;;;;;5072750;28;20223;-86
2021/12/12 13:14:08;;;;;;;14.00;5.87;;;8.90;99.90;;;;;;5072775;28;20215;-85
2021/12/12 13:16:47;;;;;;;17.50;5.90;;;9.00;99.90;;;;;;5077816;28;20211;-85
2021/12/12 13:19:25;;;;;;;146.10;14.53;;;9.00;99.90;;;;;;5079513;28;20231;-85
2021/12/12 13:22:02;;;;;;;32.33;7.13;;;9.00;99.90;;;;;;5070325;28;20560;-85